Startpagina
METAR-TAF:

METAR-TAF

Vliegvelden :

Internationale luchthaven Minneapolis-Saint Paul

Minneapolis, Minnesota, Verenigde Staten

breedte: 44-52-59N, lengte: 093-13-44W, hoogte: 256 m

Actueel weer

Dit bericht is 33 minuten geleden gemaakt, om 22:53 UTC
Wind 9 kt uit het westzuidwesten
Temperatuur 34°C
Vochtigheid 28%
Druk 1005 hPa
Zicht: 16.1 km
Verspreide wolken op 9000 ft

METAR: KMSP 262253Z 24009KT 10SM SCT090 34/13 A2969 RMK AO2 SLP045 T03390128

Tijdstip: 18:26 (23:26 UTC)

Verwachting

Dit bericht is 3 uur en het 14 minuten geleden gemaakt, om 20:12 UTC
Verwachting geldig van 26 om 20 UTC tot 27 om 24 UTC
Wind 8 kt uit het westen
Zicht: 10 km
Onbewolkt
Van 27 om 2000 UTC
Wind 5 kt uit het zuidzuidwesten
Zicht: 10 km
Weinig wolken op 25000 ft

TAF: KMSP 262012Z 2620/2724 28008KT P6SM SKC FM272000 20005KT P6SM FEW250

Waarnemingen en weersverwachtingen van meer dan 4000 vliegvelden (METAR en TAF).

De beschikbare stations zijn de gele en rode punten op de kaart.

Ga met uw muis naar het station om de naam te zien.

Klik dan om waarnemingen en weersverwachtingen te zien.

kaart wijzigen: klik op de groene knoppen met een zwart kruis om in te zoomen, op de groene knop met een streepje om uit te zoomen of op de groene pijlen voor aangrenzende kaarten.


METAR-TAF: